Waggaman, Louisiana
Current Conditions -  °F | °C
As of 8:53 AM on Friday 31 Oct 2014 (Local Time) from KMSY Reporting Station
Few Clouds Few Clouds  
Wind Chill: 63°   Ceiling: Unl
Heat Index: 63°   Visibility: 10mi
Dew Point: 55°   Wind: 7mph
Humidity: 75%   Direction: 310°NW
Pressure: 30.07"   Gusts: NA
Location:  29.9137°N, 90.2078°W
Report Text: KMSY 311353Z 31006KT 10SM FEW010 FEW250 17/13 A3007 RMK AO2 SLP185 FU FEW010 T01720128
Loading
Personal Weather Stations






























Interactive Weather Map
Tropical Storm Tracking
New forecast layout! Learn more

10-Day Weather Forecast

Advertisements
Track Severe Weather on mobile